Huvudsida
METAR-TAF:

METAR-TAF

Flygplatser :

Borlänge, Sverige

Dala Airport

latitud: 60-26N, longitud: 015-31E, höjd: 145 m

Aktuellt väderrapport

Denna rapport gjordes för 30 minuter sedan, klockan 10:20 UTC
Vind 10 kt från ost
Temperatur -3°C
Fuktighet 100%
Tryck 988 hPa
Sikt: 2200 m
lätt snö

METAR: ESSD 171020Z 09010KT 2200 -SN VV009 M03/M03 Q0988

Tid: 11:50 (10:50 UTC)

Väderprognos

Denna rapport gjordes för 2 timmar och 20 minuter sedan, klockan 08:30 UTC
Prognos gäller från 17 kl. 09 UTC till 17 kl. 18 UTC
Vind 10 kt från ost
Sikt: 5000 m
Spridda moln på en höjd av 700 ft
Mulet på en höjd av 1000 ft
lätt snö
Temporärt
från 17 kl. 09 UTC till 17 kl. 11 UTC
Sikt: 0800 m
på en höjd av 700 ft
snö
Temporärt
från 17 kl. 11 UTC till 17 kl. 18 UTC
Sikt: 2000 m
på en höjd av 800 ft
snö

TAF: ESSD 170830Z 1709/1718 10010KT 5000 -SN SCT007 OVC010 TEMPO 1709/1711 0800 SN VV007 TEMPO 1711/1718 2000 SN VV008

Aktuella väderrapporter och prognoser från 4000 flygplatser (METAR- och TAF-rapporter).

De tillgängliga stationerna syns som gula och röda prickar på kartan.

För musen över prickarna för att se namnen på stationerna.

Klicka sedan för att få väderrapporter och prognoser.

För att ändra kartan: Klicka på de gröna knapparna med ett svart kors på för att zooma in; den gröna knappen med ett streck på för att zooma ut; eller på de gröna pilarna för angränsande kartor.


METAR-TAF: